sensor_id;sensor_type;location;lat;lon;timestamp;pressure;altitude;pressure_sealevel;temperature;humidity
53246;BME280;39569;51.090;-1.786;2023-04-30T00:01:22;101547.47;;;17.73;48.48
53246;BME280;39569;51.090;-1.786;2023-04-30T00:03:49;101545.97;;;17.70;47.99
53246;BME280;39569;51.090;-1.786;2023-04-30T00:06:17;101549.72;;;17.69;48.19
53246;BME280;39569;51.090;-1.786;2023-04-30T00:08:44;101538.50;;;17.65;48.06
53246;BME280;39569;51.090;-1.786;2023-04-30T00:11:12;101532.81;;;17.54;48.41
53246;BME280;39569;51.090;-1.786;2023-04-30T00:13:38;101528.47;;;17.59;48.09
53246;BME280;39569;51.090;-1.786;2023-04-30T00:16:06;101532.84;;;17.60;48.16
53246;BME280;39569;51.090;-1.786;2023-04-30T00:18:33;101534.84;;;17.45;48.15
53246;BME280;39569;51.090;-1.786;2023-04-30T00:21:00;101535.22;;;17.42;48.24
53246;BME280;39569;51.090;-1.786;2023-04-30T00:23:26;101531.88;;;17.40;48.47
53246;BME280;39569;51.090;-1.786;2023-04-30T00:25:53;101535.63;;;17.39;48.43
53246;BME280;39569;51.090;-1.786;2023-04-30T00:28:21;101527.72;;;17.38;48.73
53246;BME280;39569;51.090;-1.786;2023-04-30T00:30:48;101527.72;;;17.38;48.32
53246;BME280;39569;51.090;-1.786;2023-04-30T00:33:15;101526.78;;;17.18;48.71
53246;BME280;39569;51.090;-1.786;2023-04-30T00:35:42;101533.19;;;17.17;48.62
53246;BME280;39569;51.090;-1.786;2023-04-30T00:38:08;101535.47;;;17.20;48.52
53246;BME280;39569;51.090;-1.786;2023-04-30T00:40:36;101518.66;;;17.18;48.61
53246;BME280;39569;51.090;-1.786;2023-04-30T00:43:03;101522.81;;;17.20;48.13
53246;BME280;39569;51.090;-1.786;2023-04-30T00:45:31;101531.31;;;17.17;48.30
53246;BME280;39569;51.090;-1.786;2023-04-30T00:47:58;101523.03;;;17.19;48.47
53246;BME280;39569;51.090;-1.786;2023-04-30T00:50:25;101522.91;;;16.99;48.58
53246;BME280;39569;51.090;-1.786;2023-04-30T00:52:52;101522.00;;;16.92;48.91
53246;BME280;39569;51.090;-1.786;2023-04-30T00:55:19;101522.97;;;16.85;49.09
53246;BME280;39569;51.090;-1.786;2023-04-30T00:57:46;101524.34;;;17.02;48.85
53246;BME280;39569;51.090;-1.786;2023-04-30T01:00:14;101520.84;;;17.01;48.71
53246;BME280;39569;51.090;-1.786;2023-04-30T01:02:42;101514.97;;;16.98;48.83
53246;BME280;39569;51.090;-1.786;2023-04-30T01:05:10;101509.75;;;16.90;48.95
53246;BME280;39569;51.090;-1.786;2023-04-30T01:07:38;101514.53;;;16.94;49.02
53246;BME280;39569;51.090;-1.786;2023-04-30T01:10:09;101511.50;;;17.04;48.82
53246;BME280;39569;51.090;-1.786;2023-04-30T01:12:42;101507.47;;;16.93;48.98
53246;BME280;39569;51.090;-1.786;2023-04-30T01:15:13;101510.03;;;17.01;49.00
53246;BME280;39569;51.090;-1.786;2023-04-30T01:17:52;101501.19;;;17.14;48.75
53246;BME280;39569;51.090;-1.786;2023-04-30T01:20:20;101500.13;;;17.08;48.85
53246;BME280;39569;51.090;-1.786;2023-04-30T01:22:53;101502.09;;;16.93;49.09
53246;BME280;39569;51.090;-1.786;2023-04-30T01:28:14;101500.81;;;16.89;48.78
53246;BME280;39569;51.090;-1.786;2023-04-30T01:30:42;101494.13;;;16.85;48.67
53246;BME280;39569;51.090;-1.786;2023-04-30T01:33:10;101490.69;;;16.70;48.96
53246;BME280;39569;51.090;-1.786;2023-04-30T01:39:01;101495.75;;;16.80;48.84
53246;BME280;39569;51.090;-1.786;2023-04-30T01:41:34;101503.06;;;16.58;49.31
53246;BME280;39569;51.090;-1.786;2023-04-30T01:44:16;101496.44;;;16.60;49.21
53246;BME280;39569;51.090;-1.786;2023-04-30T01:46:56;101498.75;;;16.63;49.00
53246;BME280;39569;51.090;-1.786;2023-04-30T01:49:31;101489.44;;;16.66;49.00
53246;BME280;39569;51.090;-1.786;2023-04-30T01:52:08;101502.72;;;16.67;48.84
53246;BME280;39569;51.090;-1.786;2023-04-30T01:54:44;101499.91;;;16.54;49.15
53246;BME280;39569;51.090;-1.786;2023-04-30T01:57:15;101495.38;;;16.55;49.35
53246;BME280;39569;51.090;-1.786;2023-04-30T01:59:45;101492.47;;;16.56;49.35
53246;BME280;39569;51.090;-1.786;2023-04-30T02:02:12;101490.03;;;16.68;49.11
53246;BME280;39569;51.090;-1.786;2023-04-30T02:04:40;101500.03;;;16.67;49.08
53246;BME280;39569;51.090;-1.786;2023-04-30T02:07:06;101489.31;;;16.53;49.36
53246;BME280;39569;51.090;-1.786;2023-04-30T02:09:33;101493.44;;;16.49;49.23
53246;BME280;39569;51.090;-1.786;2023-04-30T02:12:00;101494.44;;;16.48;49.28
53246;BME280;39569;51.090;-1.786;2023-04-30T02:14:28;101498.16;;;16.47;49.27
53246;BME280;39569;51.090;-1.786;2023-04-30T02:16:56;101494.72;;;16.53;49.16
53246;BME280;39569;51.090;-1.786;2023-04-30T02:19:23;101492.38;;;16.50;49.42
53246;BME280;39569;51.090;-1.786;2023-04-30T02:21:49;101496.31;;;16.47;49.28
53246;BME280;39569;51.090;-1.786;2023-04-30T02:24:16;101496.03;;;16.42;49.30
53246;BME280;39569;51.090;-1.786;2023-04-30T02:26:43;101497.97;;;16.48;49.24
53246;BME280;39569;51.090;-1.786;2023-04-30T02:29:10;101499.47;;;16.51;49.21
53246;BME280;39569;51.090;-1.786;2023-04-30T02:31:36;101496.03;;;16.42;49.51
53246;BME280;39569;51.090;-1.786;2023-04-30T02:34:04;101497.91;;;16.63;48.99
53246;BME280;39569;51.090;-1.786;2023-04-30T02:36:31;101496.31;;;16.47;49.44
53246;BME280;39569;51.090;-1.786;2023-04-30T02:39:00;101500.28;;;16.51;49.08
53246;BME280;39569;51.090;-1.786;2023-04-30T02:41:27;101509.00;;;16.32;49.16
53246;BME280;39569;51.090;-1.786;2023-04-30T02:43:54;101508.56;;;16.29;49.27
53246;BME280;39569;51.090;-1.786;2023-04-30T02:46:21;101507.47;;;16.23;49.38
53246;BME280;39569;51.090;-1.786;2023-04-30T02:48:48;101502.53;;;16.27;49.29
53246;BME280;39569;51.090;-1.786;2023-04-30T02:51:16;101498.66;;;16.36;49.23
53246;BME280;39569;51.090;-1.786;2023-04-30T02:53:43;101498.78;;;16.28;49.47
53246;BME280;39569;51.090;-1.786;2023-04-30T02:56:09;101503.69;;;16.18;49.55
53246;BME280;39569;51.090;-1.786;2023-04-30T02:58:36;101499.88;;;16.12;49.54
53246;BME280;39569;51.090;-1.786;2023-04-30T03:01:03;101502.94;;;16.09;49.61
53246;BME280;39569;51.090;-1.786;2023-04-30T03:03:30;101500.84;;;16.05;49.54
53246;BME280;39569;51.090;-1.786;2023-04-30T03:05:56;101504.75;;;16.02;49.61
53246;BME280;39569;51.090;-1.786;2023-04-30T03:08:25;101506.88;;;16.07;49.55
53246;BME280;39569;51.090;-1.786;2023-04-30T03:10:52;101501.59;;;15.99;49.74
53246;BME280;39569;51.090;-1.786;2023-04-30T03:13:19;101499.75;;;15.99;49.65
53246;BME280;39569;51.090;-1.786;2023-04-30T03:15:46;101505.50;;;15.96;49.67
53246;BME280;39569;51.090;-1.786;2023-04-30T03:18:12;101497.81;;;15.93;49.49
53246;BME280;39569;51.090;-1.786;2023-04-30T03:20:39;101491.56;;;15.93;49.34
53246;BME280;39569;51.090;-1.786;2023-04-30T03:23:06;101489.38;;;15.82;49.53
53246;BME280;39569;51.090;-1.786;2023-04-30T03:25:34;101490.78;;;15.77;49.58
53246;BME280;39569;51.090;-1.786;2023-04-30T03:28:01;101481.88;;;15.77;49.66
53246;BME280;39569;51.090;-1.786;2023-04-30T03:30:28;101477.31;;;15.77;49.38
53246;BME280;39569;51.090;-1.786;2023-04-30T03:32:54;101488.50;;;15.60;49.79
53246;BME280;39569;51.090;-1.786;2023-04-30T03:35:21;101469.25;;;15.63;49.81
53246;BME280;39569;51.090;-1.786;2023-04-30T03:37:48;101481.25;;;15.31;50.92
53246;BME280;39569;51.090;-1.786;2023-04-30T03:40:15;101475.69;;;15.62;49.95
53246;BME280;39569;51.090;-1.786;2023-04-30T03:42:43;101475.56;;;15.70;49.64
53246;BME280;39569;51.090;-1.786;2023-04-30T03:45:10;101478.91;;;15.72;49.43
53246;BME280;39569;51.090;-1.786;2023-04-30T03:47:37;101472.34;;;15.60;49.67
53246;BME280;39569;51.090;-1.786;2023-04-30T03:50:04;101470.56;;;15.67;49.56
53246;BME280;39569;51.090;-1.786;2023-04-30T03:52:31;101484.50;;;15.56;49.57
53246;BME280;39569;51.090;-1.786;2023-04-30T03:54:58;101480.31;;;15.53;49.56
53246;BME280;39569;51.090;-1.786;2023-04-30T03:57:25;101477.81;;;15.52;49.51
53246;BME280;39569;51.090;-1.786;2023-04-30T03:59:54;101476.88;;;15.59;49.54
53246;BME280;39569;51.090;-1.786;2023-04-30T04:02:21;101475.31;;;15.50;49.62
53246;BME280;39569;51.090;-1.786;2023-04-30T04:04:48;101481.16;;;15.54;49.36
53246;BME280;39569;51.090;-1.786;2023-04-30T04:07:15;101481.38;;;15.52;49.40
53246;BME280;39569;51.090;-1.786;2023-04-30T04:09:42;101481.09;;;15.47;49.32
53246;BME280;39569;51.090;-1.786;2023-04-30T04:12:09;101482.31;;;15.45;49.48
53246;BME280;39569;51.090;-1.786;2023-04-30T04:14:36;101472.03;;;15.40;49.50
53246;BME280;39569;51.090;-1.786;2023-04-30T04:17:04;101475.63;;;15.41;49.52
53246;BME280;39569;51.090;-1.786;2023-04-30T04:19:31;101483.59;;;15.34;49.73
53246;BME280;39569;51.090;-1.786;2023-04-30T04:21:57;101478.28;;;15.26;49.64
53246;BME280;39569;51.090;-1.786;2023-04-30T04:24:24;101479.41;;;15.46;49.59
53246;BME280;39569;51.090;-1.786;2023-04-30T04:26:51;101481.09;;;15.47;49.53
53246;BME280;39569;51.090;-1.786;2023-04-30T04:29:18;101480.72;;;15.50;49.74
53246;BME280;39569;51.090;-1.786;2023-04-30T04:31:45;101485.72;;;15.53;49.90
53246;BME280;39569;51.090;-1.786;2023-04-30T04:34:14;101476.41;;;15.70;49.93
53246;BME280;39569;51.090;-1.786;2023-04-30T04:36:41;101487.97;;;15.86;49.83
53246;BME280;39569;51.090;-1.786;2023-04-30T04:39:08;101482.72;;;15.99;49.67
53246;BME280;39569;51.090;-1.786;2023-04-30T04:41:36;101489.66;;;16.08;49.64
53246;BME280;39569;51.090;-1.786;2023-04-30T04:44:03;101490.75;;;16.13;49.40
53246;BME280;39569;51.090;-1.786;2023-04-30T04:46:30;101493.66;;;16.33;49.03
53246;BME280;39569;51.090;-1.786;2023-04-30T04:48:57;101494.28;;;16.35;48.80
53246;BME280;39569;51.090;-1.786;2023-04-30T04:51:26;101485.88;;;16.44;49.16
53246;BME280;39569;51.090;-1.786;2023-04-30T04:53:53;101479.63;;;16.44;49.07
53246;BME280;39569;51.090;-1.786;2023-04-30T04:56:19;101472.34;;;16.59;48.62
53246;BME280;39569;51.090;-1.786;2023-04-30T04:58:46;101477.59;;;16.67;48.87
53246;BME280;39569;51.090;-1.786;2023-04-30T05:01:13;101476.13;;;16.64;48.86
53246;BME280;39569;51.090;-1.786;2023-04-30T05:03:40;101475.16;;;16.72;48.84
53246;BME280;39569;51.090;-1.786;2023-04-30T05:06:06;101478.38;;;16.89;48.57
53246;BME280;39569;51.090;-1.786;2023-04-30T05:08:34;101482.72;;;17.17;48.16
53246;BME280;39569;51.090;-1.786;2023-04-30T05:11:02;101473.06;;;17.36;47.55
53246;BME280;39569;51.090;-1.786;2023-04-30T05:13:29;101477.22;;;17.38;47.70
53246;BME280;39569;51.090;-1.786;2023-04-30T05:15:56;101479.06;;;17.31;48.20
53246;BME280;39569;51.090;-1.786;2023-04-30T05:18:23;101474.97;;;17.42;48.18
53246;BME280;39569;51.090;-1.786;2023-04-30T05:20:49;101467.91;;;17.41;47.90
53246;BME280;39569;51.090;-1.786;2023-04-30T05:23:16;101467.31;;;17.45;48.34
53246;BME280;39569;51.090;-1.786;2023-04-30T05:25:44;101460.56;;;17.69;47.92
53246;BME280;39569;51.090;-1.786;2023-04-30T05:28:11;101473.69;;;17.79;47.66
53246;BME280;39569;51.090;-1.786;2023-04-30T05:30:38;101469.38;;;17.97;47.61
53246;BME280;39569;51.090;-1.786;2023-04-30T05:33:05;101476.28;;;18.06;47.62
53246;BME280;39569;51.090;-1.786;2023-04-30T05:35:31;101475.44;;;18.19;47.65
53246;BME280;39569;51.090;-1.786;2023-04-30T05:38:00;101475.06;;;18.28;47.93
53246;BME280;39569;51.090;-1.786;2023-04-30T05:40:27;101468.81;;;18.34;47.63
53246;BME280;39569;51.090;-1.786;2023-04-30T05:42:55;101472.75;;;18.38;47.87
53246;BME280;39569;51.090;-1.786;2023-04-30T05:45:22;101473.84;;;18.44;48.04
53246;BME280;39569;51.090;-1.786;2023-04-30T05:47:48;101476.97;;;18.60;48.03
53246;BME280;39569;51.090;-1.786;2023-04-30T05:50:15;101478.63;;;18.55;48.22
53246;BME280;39569;51.090;-1.786;2023-04-30T05:52:42;101480.28;;;18.62;48.43
53246;BME280;39569;51.090;-1.786;2023-04-30T05:55:09;101480.50;;;18.61;48.87
53246;BME280;39569;51.090;-1.786;2023-04-30T05:57:36;101475.91;;;18.94;48.37
53246;BME280;39569;51.090;-1.786;2023-04-30T06:00:06;101475.06;;;19.00;48.52
53246;BME280;39569;51.090;-1.786;2023-04-30T06:02:33;101477.16;;;19.05;48.67
53246;BME280;39569;51.090;-1.786;2023-04-30T06:04:59;101484.66;;;18.70;49.73
53246;BME280;39569;51.090;-1.786;2023-04-30T06:07:27;101483.22;;;18.74;49.89
53246;BME280;39569;51.090;-1.786;2023-04-30T06:09:55;101487.34;;;19.09;48.84
53246;BME280;39569;51.090;-1.786;2023-04-30T06:12:21;101487.97;;;19.18;49.10
53246;BME280;39569;51.090;-1.786;2023-04-30T06:14:48;101490.41;;;19.45;48.50
53246;BME280;39569;51.090;-1.786;2023-04-30T06:17:17;101484.78;;;19.47;48.55
53246;BME280;39569;51.090;-1.786;2023-04-30T06:19:43;101488.81;;;18.99;49.52
53246;BME280;39569;51.090;-1.786;2023-04-30T06:22:10;101492.50;;;19.24;48.90
53246;BME280;39569;51.090;-1.786;2023-04-30T06:24:37;101486.09;;;19.05;49.38
53246;BME280;39569;51.090;-1.786;2023-04-30T06:27:04;101494.44;;;18.91;49.66
53246;BME280;39569;51.090;-1.786;2023-04-30T06:29:30;101494.38;;;19.43;48.46
53246;BME280;39569;51.090;-1.786;2023-04-30T06:31:57;101502.91;;;19.46;49.06
53246;BME280;39569;51.090;-1.786;2023-04-30T06:34:25;101492.72;;;19.29;49.61
53246;BME280;39569;51.090;-1.786;2023-04-30T06:36:52;101500.41;;;19.38;49.09
53246;BME280;39569;51.090;-1.786;2023-04-30T06:39:19;101495.88;;;19.19;49.12
53246;BME280;39569;51.090;-1.786;2023-04-30T06:41:46;101494.50;;;19.61;48.86
53246;BME280;39569;51.090;-1.786;2023-04-30T06:44:12;101501.56;;;19.75;48.23
53246;BME280;39569;51.090;-1.786;2023-04-30T06:46:39;101500.53;;;19.63;48.61
53246;BME280;39569;51.090;-1.786;2023-04-30T06:49:06;101492.06;;;19.97;48.28
53246;BME280;39569;51.090;-1.786;2023-04-30T06:51:35;101488.19;;;20.11;47.88
53246;BME280;39569;51.090;-1.786;2023-04-30T06:54:02;101494.03;;;20.21;47.73
53246;BME280;39569;51.090;-1.786;2023-04-30T06:56:29;101496.41;;;19.98;48.23
53246;BME280;39569;51.090;-1.786;2023-04-30T06:58:56;101492.22;;;20.02;48.13
53246;BME280;39569;51.090;-1.786;2023-04-30T07:01:22;101497.25;;;19.99;47.92
53246;BME280;39569;51.090;-1.786;2023-04-30T07:03:50;101503.63;;;20.48;47.32
53246;BME280;39569;51.090;-1.786;2023-04-30T07:06:18;101498.44;;;20.72;46.58
53246;BME280;39569;51.090;-1.786;2023-04-30T07:08:47;101497.81;;;20.94;46.37
53246;BME280;39569;51.090;-1.786;2023-04-30T07:11:14;101499.09;;;20.42;47.42
53246;BME280;39569;51.090;-1.786;2023-04-30T07:13:41;101489.69;;;20.70;46.49
53246;BME280;39569;51.090;-1.786;2023-04-30T07:16:07;101492.00;;;20.04;47.74
53246;BME280;39569;51.090;-1.786;2023-04-30T07:18:35;101490.22;;;20.29;47.45
53246;BME280;39569;51.090;-1.786;2023-04-30T07:21:02;101495.06;;;20.20;48.23
53246;BME280;39569;51.090;-1.786;2023-04-30T07:23:29;101497.66;;;20.89;46.33
53246;BME280;39569;51.090;-1.786;2023-04-30T07:25:58;101494.16;;;21.07;46.37
53246;BME280;39569;51.090;-1.786;2023-04-30T07:28:24;101496.41;;;20.92;46.36
53246;BME280;39569;51.090;-1.786;2023-04-30T07:30:51;101494.00;;;20.77;46.51
53246;BME280;39569;51.090;-1.786;2023-04-30T07:33:18;101487.91;;;21.61;45.36
53246;BME280;39569;51.090;-1.786;2023-04-30T07:35:45;101493.41;;;21.90;44.63
53246;BME280;39569;51.090;-1.786;2023-04-30T07:38:12;101489.06;;;21.71;45.07
53246;BME280;39569;51.090;-1.786;2023-04-30T07:40:38;101489.38;;;21.45;44.74
53246;BME280;39569;51.090;-1.786;2023-04-30T07:43:06;101498.44;;;22.05;44.44
53246;BME280;39569;51.090;-1.786;2023-04-30T07:45:34;101499.78;;;21.84;44.67
53246;BME280;39569;51.090;-1.786;2023-04-30T07:48:01;101491.53;;;21.73;45.35
53246;BME280;39569;51.090;-1.786;2023-04-30T07:50:29;101497.13;;;21.78;44.36
53246;BME280;39569;51.090;-1.786;2023-04-30T07:52:58;101493.47;;;22.02;44.41
53246;BME280;39569;51.090;-1.786;2023-04-30T07:55:25;101501.03;;;22.29;43.04
53246;BME280;39569;51.090;-1.786;2023-04-30T07:57:51;101491.78;;;21.71;44.59
53246;BME280;39569;51.090;-1.786;2023-04-30T08:00:20;101489.84;;;22.08;43.55
53246;BME280;39569;51.090;-1.786;2023-04-30T08:02:47;101499.84;;;21.78;44.40
53246;BME280;39569;51.090;-1.786;2023-04-30T08:05:14;101496.50;;;21.94;44.35
53246;BME280;39569;51.090;-1.786;2023-04-30T08:07:41;101498.91;;;22.02;44.28
53246;BME280;39569;51.090;-1.786;2023-04-30T08:10:09;101496.19;;;22.31;43.86
53246;BME280;39569;51.090;-1.786;2023-04-30T08:12:36;101496.91;;;22.38;43.15
53246;BME280;39569;51.090;-1.786;2023-04-30T08:15:03;101487.75;;;22.74;42.10
53246;BME280;39569;51.090;-1.786;2023-04-30T08:17:33;101483.75;;;23.11;42.09
53246;BME280;39569;51.090;-1.786;2023-04-30T08:20:00;101481.84;;;23.00;42.01
53246;BME280;39569;51.090;-1.786;2023-04-30T08:22:26;101486.34;;;22.83;41.70
53246;BME280;39569;51.090;-1.786;2023-04-30T08:24:53;101480.31;;;23.16;42.12
53246;BME280;39569;51.090;-1.786;2023-04-30T08:27:20;101489.09;;;22.42;42.56
53246;BME280;39569;51.090;-1.786;2023-04-30T08:29:47;101489.09;;;22.30;43.27
53246;BME280;39569;51.090;-1.786;2023-04-30T08:32:14;101492.00;;;21.88;44.01
53246;BME280;39569;51.090;-1.786;2023-04-30T08:34:42;101476.44;;;22.36;43.20
53246;BME280;39569;51.090;-1.786;2023-04-30T08:37:09;101483.28;;;22.27;43.04
53246;BME280;39569;51.090;-1.786;2023-04-30T08:39:35;101475.38;;;22.48;43.04
53246;BME280;39569;51.090;-1.786;2023-04-30T08:42:07;101481.16;;;22.93;41.99
53246;BME280;39569;51.090;-1.786;2023-04-30T08:44:35;101470.50;;;22.80;41.64
53246;BME280;39569;51.090;-1.786;2023-04-30T08:47:05;101481.41;;;22.92;42.11
53246;BME280;39569;51.090;-1.786;2023-04-30T08:49:34;101476.59;;;22.53;42.58
53246;BME280;39569;51.090;-1.786;2023-04-30T08:52:02;101477.34;;;22.94;41.88
53246;BME280;39569;51.090;-1.786;2023-04-30T08:54:30;101473.28;;;23.55;41.46
53246;BME280;39569;51.090;-1.786;2023-04-30T08:56:57;101472.59;;;23.01;41.98
53246;BME280;39569;51.090;-1.786;2023-04-30T08:59:24;101471.53;;;23.37;41.94
53246;BME280;39569;51.090;-1.786;2023-04-30T09:01:50;101477.41;;;23.57;40.84
53246;BME280;39569;51.090;-1.786;2023-04-30T09:04:17;101474.59;;;23.52;40.97
53246;BME280;39569;51.090;-1.786;2023-04-30T09:06:44;101472.16;;;23.67;41.02
53246;BME280;39569;51.090;-1.786;2023-04-30T09:09:14;101473.72;;;23.63;41.05
53246;BME280;39569;51.090;-1.786;2023-04-30T09:11:41;101465.09;;;23.55;40.28
53246;BME280;39569;51.090;-1.786;2023-04-30T09:14:08;101464.47;;;24.20;39.67
53246;BME280;39569;51.090;-1.786;2023-04-30T09:16:45;101459.38;;;24.41;39.42
53246;BME280;39569;51.090;-1.786;2023-04-30T09:19:22;101459.28;;;24.35;39.31
53246;BME280;39569;51.090;-1.786;2023-04-30T09:21:49;101463.03;;;24.01;38.92
53246;BME280;39569;51.090;-1.786;2023-04-30T09:24:18;101458.59;;;24.12;38.29
53246;BME280;39569;51.090;-1.786;2023-04-30T09:26:45;101466.63;;;24.18;38.83
53246;BME280;39569;51.090;-1.786;2023-04-30T09:29:13;101469.16;;;22.94;39.68
53246;BME280;39569;51.090;-1.786;2023-04-30T09:32:23;101469.16;;;22.94;39.68
53246;BME280;39569;51.090;-1.786;2023-04-30T09:34:50;101464.69;;;24.30;37.53
53246;BME280;39569;51.090;-1.786;2023-04-30T09:37:17;101459.72;;;23.71;37.53
53246;BME280;39569;51.090;-1.786;2023-04-30T09:39:50;101466.09;;;24.05;38.44
53246;BME280;39569;51.090;-1.786;2023-04-30T09:42:18;101459.16;;;23.86;37.98
53246;BME280;39569;51.090;-1.786;2023-04-30T09:44:45;101467.94;;;23.48;37.90
53246;BME280;39569;51.090;-1.786;2023-04-30T09:47:14;101460.34;;;24.34;37.09
53246;BME280;39569;51.090;-1.786;2023-04-30T09:49:42;101463.81;;;25.13;35.15
53246;BME280;39569;51.090;-1.786;2023-04-30T09:52:10;101461.06;;;24.75;35.11
53246;BME280;39569;51.090;-1.786;2023-04-30T09:54:37;101460.28;;;24.46;36.80
53246;BME280;39569;51.090;-1.786;2023-04-30T09:57:09;101463.06;;;24.18;36.61
53246;BME280;39569;51.090;-1.786;2023-04-30T09:59:37;101462.88;;;24.53;36.83
53246;BME280;39569;51.090;-1.786;2023-04-30T10:02:05;101463.28;;;24.78;35.78
53246;BME280;39569;51.090;-1.786;2023-04-30T10:04:34;101465.50;;;24.97;35.81
53246;BME280;39569;51.090;-1.786;2023-04-30T10:07:03;101463.34;;;24.83;35.91
53246;BME280;39569;51.090;-1.786;2023-04-30T10:09:36;101458.88;;;24.27;36.08
53246;BME280;39569;51.090;-1.786;2023-04-30T10:12:12;101461.25;;;24.40;36.43
53246;BME280;39569;51.090;-1.786;2023-04-30T10:14:44;101465.63;;;24.08;36.58
53246;BME280;39569;51.090;-1.786;2023-04-30T10:17:15;101459.56;;;24.67;36.26
53246;BME280;39569;51.090;-1.786;2023-04-30T10:19:45;101452.78;;;25.24;36.16
53246;BME280;39569;51.090;-1.786;2023-04-30T10:22:13;101457.09;;;25.20;35.74
53246;BME280;39569;51.090;-1.786;2023-04-30T10:24:41;101451.50;;;24.94;35.37
53246;BME280;39569;51.090;-1.786;2023-04-30T10:27:10;101451.94;;;24.69;36.22
53246;BME280;39569;51.090;-1.786;2023-04-30T10:29:37;101453.34;;;24.72;35.35
53246;BME280;39569;51.090;-1.786;2023-04-30T10:32:05;101448.28;;;24.47;34.34
53246;BME280;39569;51.090;-1.786;2023-04-30T10:34:40;101454.25;;;24.61;34.74
53246;BME280;39569;51.090;-1.786;2023-04-30T10:37:13;101458.69;;;25.00;35.13
53246;BME280;39569;51.090;-1.786;2023-04-30T10:39:43;101452.47;;;25.43;34.27
53246;BME280;39569;51.090;-1.786;2023-04-30T10:42:11;101455.94;;;25.55;33.49
53246;BME280;39569;51.090;-1.786;2023-04-30T10:44:38;101460.81;;;25.14;33.84
53246;BME280;39569;51.090;-1.786;2023-04-30T10:47:06;101456.13;;;25.48;33.41
53246;BME280;39569;51.090;-1.786;2023-04-30T10:49:33;101462.22;;;24.95;34.59
53246;BME280;39569;51.090;-1.786;2023-04-30T10:52:01;101452.25;;;25.27;34.37
53246;BME280;39569;51.090;-1.786;2023-04-30T10:54:31;101453.47;;;25.37;34.44
53246;BME280;39569;51.090;-1.786;2023-04-30T10:57:09;101457.03;;;23.88;36.72
53246;BME280;39569;51.090;-1.786;2023-04-30T10:59:41;101457.88;;;23.49;37.23
53246;BME280;39569;51.090;-1.786;2023-04-30T11:02:09;101453.66;;;23.69;36.74
53246;BME280;39569;51.090;-1.786;2023-04-30T11:05:10;101456.59;;;24.07;37.00
53246;BME280;39569;51.090;-1.786;2023-04-30T11:07:46;101460.38;;;23.27;37.68
53246;BME280;39569;51.090;-1.786;2023-04-30T11:10:14;101455.03;;;23.83;37.65
53246;BME280;39569;51.090;-1.786;2023-04-30T11:12:47;101456.59;;;22.59;38.81
53246;BME280;39569;51.090;-1.786;2023-04-30T11:15:17;101455.19;;;22.79;39.46
53246;BME280;39569;51.090;-1.786;2023-04-30T11:17:44;101448.66;;;23.26;39.93
53246;BME280;39569;51.090;-1.786;2023-04-30T11:20:12;101449.41;;;22.87;41.68
53246;BME280;39569;51.090;-1.786;2023-04-30T11:22:40;101442.50;;;22.96;41.08
53246;BME280;39569;51.090;-1.786;2023-04-30T11:25:08;101444.16;;;23.20;40.79
53246;BME280;39569;51.090;-1.786;2023-04-30T11:27:39;101439.69;;;22.91;41.86
53246;BME280;39569;51.090;-1.786;2023-04-30T11:30:11;101451.53;;;22.62;41.98
53246;BME280;39569;51.090;-1.786;2023-04-30T11:32:42;101443.81;;;22.94;42.24
53246;BME280;39569;51.090;-1.786;2023-04-30T11:35:10;101452.28;;;21.98;42.19
53246;BME280;39569;51.090;-1.786;2023-04-30T11:37:38;101453.47;;;21.73;42.23
53246;BME280;39569;51.090;-1.786;2023-04-30T11:40:07;101454.34;;;22.03;42.93
53246;BME280;39569;51.090;-1.786;2023-04-30T11:42:35;101441.09;;;22.94;41.94
53246;BME280;39569;51.090;-1.786;2023-04-30T11:45:05;101438.69;;;23.20;41.33
53246;BME280;39569;51.090;-1.786;2023-04-30T11:47:42;101441.97;;;23.46;39.93
53246;BME280;39569;51.090;-1.786;2023-04-30T11:50:11;101432.69;;;23.86;39.48
53246;BME280;39569;51.090;-1.786;2023-04-30T11:52:39;101433.34;;;24.05;39.37
53246;BME280;39569;51.090;-1.786;2023-04-30T11:55:16;101436.94;;;23.66;39.36
53246;BME280;39569;51.090;-1.786;2023-04-30T11:57:44;101431.06;;;24.30;38.99
53246;BME280;39569;51.090;-1.786;2023-04-30T12:00:13;101432.81;;;23.91;38.67
53246;BME280;39569;51.090;-1.786;2023-04-30T12:02:42;101432.03;;;24.07;39.57
53246;BME280;39569;51.090;-1.786;2023-04-30T12:05:14;101428.34;;;24.80;38.47
53246;BME280;39569;51.090;-1.786;2023-04-30T12:07:48;101432.22;;;24.84;37.80
53246;BME280;39569;51.090;-1.786;2023-04-30T12:10:15;101424.44;;;24.26;37.86
53246;BME280;39569;51.090;-1.786;2023-04-30T12:12:42;101421.06;;;24.19;36.97
53246;BME280;39569;51.090;-1.786;2023-04-30T12:15:12;101422.31;;;24.00;38.24
53246;BME280;39569;51.090;-1.786;2023-04-30T12:17:39;101432.63;;;23.70;38.46
53246;BME280;39569;51.090;-1.786;2023-04-30T12:20:08;101422.88;;;24.13;37.87
53246;BME280;39569;51.090;-1.786;2023-04-30T12:22:36;101420.72;;;24.49;36.94
53246;BME280;39569;51.090;-1.786;2023-04-30T12:25:05;101419.88;;;24.48;37.27
53246;BME280;39569;51.090;-1.786;2023-04-30T12:27:33;101413.44;;;24.04;37.54
53246;BME280;39569;51.090;-1.786;2023-04-30T12:30:02;101413.59;;;24.14;38.15
53246;BME280;39569;51.090;-1.786;2023-04-30T12:32:36;101417.41;;;24.63;37.96
53246;BME280;39569;51.090;-1.786;2023-04-30T12:35:04;101416.66;;;24.84;36.83
53246;BME280;39569;51.090;-1.786;2023-04-30T12:37:33;101413.84;;;24.29;36.89
53246;BME280;39569;51.090;-1.786;2023-04-30T12:40:00;101408.38;;;24.79;36.21
53246;BME280;39569;51.090;-1.786;2023-04-30T12:42:31;101412.47;;;23.99;37.05
53246;BME280;39569;51.090;-1.786;2023-04-30T12:44:59;101408.56;;;24.56;36.36
53246;BME280;39569;51.090;-1.786;2023-04-30T12:47:26;101401.25;;;23.67;37.20
53246;BME280;39569;51.090;-1.786;2023-04-30T12:49:54;101411.09;;;23.85;37.41
53246;BME280;39569;51.090;-1.786;2023-04-30T12:52:23;101396.72;;;24.17;37.64